sensor_id;sensor_type;location;lat;lon;timestamp;temperature;humidity
75799;DHT22;65035;44.726;37.764;2023-02-03T00:00:20;18.79;118.99
75799;DHT22;65035;44.726;37.764;2023-02-03T00:01:23;18.81;118.52
75799;DHT22;65035;44.726;37.764;2023-02-03T00:02:26;18.81;118.15
75799;DHT22;65035;44.726;37.764;2023-02-03T00:03:29;18.81;117.36
75799;DHT22;65035;44.726;37.764;2023-02-03T00:04:31;18.82;116.70
75799;DHT22;65035;44.726;37.764;2023-02-03T00:05:35;18.82;118.98
75799;DHT22;65035;44.726;37.764;2023-02-03T00:06:39;18.82;114.48
75799;DHT22;65035;44.726;37.764;2023-02-03T00:07:42;18.79;118.60
75799;DHT22;65035;44.726;37.764;2023-02-03T00:08:45;18.80;115.64
75799;DHT22;65035;44.726;37.764;2023-02-03T00:09:48;18.81;114.75
75799;DHT22;65035;44.726;37.764;2023-02-03T00:10:52;18.79;118.99
75799;DHT22;65035;44.726;37.764;2023-02-03T00:11:55;18.77;116.57
75799;DHT22;65035;44.726;37.764;2023-02-03T00:12:58;18.80;114.39
75799;DHT22;65035;44.726;37.764;2023-02-03T00:14:01;18.79;115.19
75799;DHT22;65035;44.726;37.764;2023-02-03T00:15:07;18.79;117.63
75799;DHT22;65035;44.726;37.764;2023-02-03T00:16:10;18.78;116.73
75799;DHT22;65035;44.726;37.764;2023-02-03T00:17:13;18.79;118.99
75799;DHT22;65035;44.726;37.764;2023-02-03T00:18:16;18.78;118.99
75799;DHT22;65035;44.726;37.764;2023-02-03T00:19:19;18.78;116.19
75799;DHT22;65035;44.726;37.764;2023-02-03T00:20:22;18.76;118.99
75799;DHT22;65035;44.726;37.764;2023-02-03T00:21:25;18.77;118.99
75799;DHT22;65035;44.726;37.764;2023-02-03T00:22:28;18.76;117.65
75799;DHT22;65035;44.726;37.764;2023-02-03T00:23:31;18.77;115.16
75799;DHT22;65035;44.726;37.764;2023-02-03T00:24:34;18.77;115.09
75799;DHT22;65035;44.726;37.764;2023-02-03T00:25:37;18.77;117.60
75799;DHT22;65035;44.726;37.764;2023-02-03T00:26:43;18.77;118.57
75799;DHT22;65035;44.726;37.764;2023-02-03T00:27:49;18.77;117.81
75799;DHT22;65035;44.726;37.764;2023-02-03T00:28:52;18.74;115.54
75799;DHT22;65035;44.726;37.764;2023-02-03T00:29:54;18.78;114.65
75799;DHT22;65035;44.726;37.764;2023-02-03T00:30:57;18.77;118.99
75799;DHT22;65035;44.726;37.764;2023-02-03T00:32:00;18.74;118.99
75799;DHT22;65035;44.726;37.764;2023-02-03T00:33:03;18.76;118.99
75799;DHT22;65035;44.726;37.764;2023-02-03T00:34:06;18.74;113.44
75799;DHT22;65035;44.726;37.764;2023-02-03T00:35:09;18.76;115.37
75799;DHT22;65035;44.726;37.764;2023-02-03T00:36:11;18.76;116.56
75799;DHT22;65035;44.726;37.764;2023-02-03T00:37:15;18.76;117.04
75799;DHT22;65035;44.726;37.764;2023-02-03T00:38:17;18.74;116.35
75799;DHT22;65035;44.726;37.764;2023-02-03T00:39:20;18.74;115.14
75799;DHT22;65035;44.726;37.764;2023-02-03T00:40:25;18.77;114.16
75799;DHT22;65035;44.726;37.764;2023-02-03T00:41:30;18.76;115.85
75799;DHT22;65035;44.726;37.764;2023-02-03T00:42:35;18.76;115.57
75799;DHT22;65035;44.726;37.764;2023-02-03T00:43:39;18.73;113.39
75799;DHT22;65035;44.726;37.764;2023-02-03T00:44:42;18.74;114.89
75799;DHT22;65035;44.726;37.764;2023-02-03T00:45:45;18.77;114.22
75799;DHT22;65035;44.726;37.764;2023-02-03T00:46:47;18.77;115.78
75799;DHT22;65035;44.726;37.764;2023-02-03T00:47:50;18.77;117.22
75799;DHT22;65035;44.726;37.764;2023-02-03T00:48:53;18.74;118.57
75799;DHT22;65035;44.726;37.764;2023-02-03T00:49:56;18.77;118.26
75799;DHT22;65035;44.726;37.764;2023-02-03T00:50:59;18.74;118.93
75799;DHT22;65035;44.726;37.764;2023-02-03T00:52:02;18.76;117.35
75799;DHT22;65035;44.726;37.764;2023-02-03T00:53:05;18.76;115.70
75799;DHT22;65035;44.726;37.764;2023-02-03T00:54:08;18.76;118.99
75799;DHT22;65035;44.726;37.764;2023-02-03T00:55:12;18.74;118.99
75799;DHT22;65035;44.726;37.764;2023-02-03T00:56:15;18.72;118.99
75799;DHT22;65035;44.726;37.764;2023-02-03T00:57:18;18.73;118.99
75799;DHT22;65035;44.726;37.764;2023-02-03T00:58:21;18.71;118.99
75799;DHT22;65035;44.726;37.764;2023-02-03T00:59:24;18.74;118.30
75799;DHT22;65035;44.726;37.764;2023-02-03T01:00:27;18.73;118.05
75799;DHT22;65035;44.726;37.764;2023-02-03T01:01:30;18.74;118.99
75799;DHT22;65035;44.726;37.764;2023-02-03T01:02:33;18.74;118.99
75799;DHT22;65035;44.726;37.764;2023-02-03T01:03:36;18.73;118.99
75799;DHT22;65035;44.726;37.764;2023-02-03T01:04:39;18.73;118.99
75799;DHT22;65035;44.726;37.764;2023-02-03T01:05:42;18.76;118.99
75799;DHT22;65035;44.726;37.764;2023-02-03T01:06:44;18.77;117.63
75799;DHT22;65035;44.726;37.764;2023-02-03T01:07:47;18.78;118.99
75799;DHT22;65035;44.726;37.764;2023-02-03T01:08:50;18.78;118.99
75799;DHT22;65035;44.726;37.764;2023-02-03T01:09:53;18.81;118.99
75799;DHT22;65035;44.726;37.764;2023-02-03T01:10:56;18.80;118.99
75799;DHT22;65035;44.726;37.764;2023-02-03T01:12:00;18.82;118.99
75799;DHT22;65035;44.726;37.764;2023-02-03T01:13:02;18.83;118.99
75799;DHT22;65035;44.726;37.764;2023-02-03T01:14:05;18.85;118.99
75799;DHT22;65035;44.726;37.764;2023-02-03T01:15:10;18.84;118.99
75799;DHT22;65035;44.726;37.764;2023-02-03T01:16:18;18.85;118.99
75799;DHT22;65035;44.726;37.764;2023-02-03T01:17:21;18.86;118.99
75799;DHT22;65035;44.726;37.764;2023-02-03T01:18:26;18.87;118.99
75799;DHT22;65035;44.726;37.764;2023-02-03T01:19:29;18.88;118.99
75799;DHT22;65035;44.726;37.764;2023-02-03T01:20:32;18.88;118.99
75799;DHT22;65035;44.726;37.764;2023-02-03T01:21:36;18.91;118.99
75799;DHT22;65035;44.726;37.764;2023-02-03T01:22:39;18.95;118.51
75799;DHT22;65035;44.726;37.764;2023-02-03T01:23:42;18.94;118.99
75799;DHT22;65035;44.726;37.764;2023-02-03T01:24:45;18.94;118.99
75799;DHT22;65035;44.726;37.764;2023-02-03T01:25:48;18.95;118.99
75799;DHT22;65035;44.726;37.764;2023-02-03T01:26:51;18.97;118.99
75799;DHT22;65035;44.726;37.764;2023-02-03T01:27:54;18.97;118.99
75799;DHT22;65035;44.726;37.764;2023-02-03T01:28:59;18.98;118.99
75799;DHT22;65035;44.726;37.764;2023-02-03T01:30:02;18.99;118.99
75799;DHT22;65035;44.726;37.764;2023-02-03T01:32:15;18.99;118.99
75799;DHT22;65035;44.726;37.764;2023-02-03T01:33:18;19.00;118.99
75799;DHT22;65035;44.726;37.764;2023-02-03T01:34:31;18.99;118.99
75799;DHT22;65035;44.726;37.764;2023-02-03T01:35:46;19.00;118.99
75799;DHT22;65035;44.726;37.764;2023-02-03T01:36:49;19.03;114.39
75799;DHT22;65035;44.726;37.764;2023-02-03T01:37:52;19.00;118.99
75799;DHT22;65035;44.726;37.764;2023-02-03T01:38:55;19.00;118.99
75799;DHT22;65035;44.726;37.764;2023-02-03T01:39:57;19.00;118.99
75799;DHT22;65035;44.726;37.764;2023-02-03T01:41:06;19.00;118.99
75799;DHT22;65035;44.726;37.764;2023-02-03T01:45:48;19.03;118.99
75799;DHT22;65035;44.726;37.764;2023-02-03T01:46:52;19.03;118.99
75799;DHT22;65035;44.726;37.764;2023-02-03T01:47:57;19.03;118.99
75799;DHT22;65035;44.726;37.764;2023-02-03T01:49:21;19.03;118.99
75799;DHT22;65035;44.726;37.764;2023-02-03T01:50:31;19.06;118.99
75799;DHT22;65035;44.726;37.764;2023-02-03T01:51:37;18.98;118.99
75799;DHT22;65035;44.726;37.764;2023-02-03T01:52:43;19.02;118.99
75799;DHT22;65035;44.726;37.764;2023-02-03T01:53:46;19.03;118.99
75799;DHT22;65035;44.726;37.764;2023-02-03T01:54:51;19.05;118.99
75799;DHT22;65035;44.726;37.764;2023-02-03T01:55:56;19.07;118.99
75799;DHT22;65035;44.726;37.764;2023-02-03T01:57:05;19.05;118.99
75799;DHT22;65035;44.726;37.764;2023-02-03T01:58:28;19.05;118.99
75799;DHT22;65035;44.726;37.764;2023-02-03T01:59:33;19.03;118.99
75799;DHT22;65035;44.726;37.764;2023-02-03T02:00:37;19.06;118.99
75799;DHT22;65035;44.726;37.764;2023-02-03T02:01:40;19.07;118.99
75799;DHT22;65035;44.726;37.764;2023-02-03T02:02:45;19.06;118.99
75799;DHT22;65035;44.726;37.764;2023-02-03T02:03:52;19.06;118.95
75799;DHT22;65035;44.726;37.764;2023-02-03T02:05:02;19.05;118.99
75799;DHT22;65035;44.726;37.764;2023-02-03T02:06:11;19.06;118.99
75799;DHT22;65035;44.726;37.764;2023-02-03T02:07:15;19.03;118.99
75799;DHT22;65035;44.726;37.764;2023-02-03T02:08:18;19.03;118.99
75799;DHT22;65035;44.726;37.764;2023-02-03T02:09:25;19.03;118.99
75799;DHT22;65035;44.726;37.764;2023-02-03T02:10:32;19.03;118.99
75799;DHT22;65035;44.726;37.764;2023-02-03T02:11:35;19.03;118.99
75799;DHT22;65035;44.726;37.764;2023-02-03T02:12:38;19.05;118.99
75799;DHT22;65035;44.726;37.764;2023-02-03T02:13:42;19.03;118.99
75799;DHT22;65035;44.726;37.764;2023-02-03T02:14:46;19.06;118.99
75799;DHT22;65035;44.726;37.764;2023-02-03T02:16:01;19.07;118.99
75799;DHT22;65035;44.726;37.764;2023-02-03T02:26:27;19.02;118.99
75799;DHT22;65035;44.726;37.764;2023-02-03T02:29:11;19.01;118.99
75799;DHT22;65035;44.726;37.764;2023-02-03T02:32:04;18.97;117.10
75799;DHT22;65035;44.726;37.764;2023-02-03T02:33:41;18.98;118.08
75799;DHT22;65035;44.726;37.764;2023-02-03T02:36:39;18.93;117.52
75799;DHT22;65035;44.726;37.764;2023-02-03T02:37:58;18.93;118.99
75799;DHT22;65035;44.726;37.764;2023-02-03T02:39:22;18.92;118.26
75799;DHT22;65035;44.726;37.764;2023-02-03T02:41:55;18.89;118.99
75799;DHT22;65035;44.726;37.764;2023-02-03T02:43:09;18.91;118.99
75799;DHT22;65035;44.726;37.764;2023-02-03T02:44:24;18.89;118.99
75799;DHT22;65035;44.726;37.764;2023-02-03T02:45:56;18.88;118.99
75799;DHT22;65035;44.726;37.764;2023-02-03T02:47:05;18.87;118.99
75799;DHT22;65035;44.726;37.764;2023-02-03T02:48:31;18.88;118.99
75799;DHT22;65035;44.726;37.764;2023-02-03T02:49:43;18.88;118.99
75799;DHT22;65035;44.726;37.764;2023-02-03T02:50:52;18.88;118.99
75799;DHT22;65035;44.726;37.764;2023-02-03T02:51:59;18.87;118.99
75799;DHT22;65035;44.726;37.764;2023-02-03T02:53:03;18.87;118.99
75799;DHT22;65035;44.726;37.764;2023-02-03T02:54:09;18.87;118.99
75799;DHT22;65035;44.726;37.764;2023-02-03T02:55:17;18.86;118.99
75799;DHT22;65035;44.726;37.764;2023-02-03T02:56:28;18.88;118.99
75799;DHT22;65035;44.726;37.764;2023-02-03T02:57:33;18.86;118.99
75799;DHT22;65035;44.726;37.764;2023-02-03T02:58:40;18.87;118.99
75799;DHT22;65035;44.726;37.764;2023-02-03T02:59:45;18.87;118.21
75799;DHT22;65035;44.726;37.764;2023-02-03T03:00:48;18.86;118.99
75799;DHT22;65035;44.726;37.764;2023-02-03T03:01:51;18.86;118.99
75799;DHT22;65035;44.726;37.764;2023-02-03T03:02:54;18.85;118.99
75799;DHT22;65035;44.726;37.764;2023-02-03T03:03:59;18.86;118.99
75799;DHT22;65035;44.726;37.764;2023-02-03T03:05:07;18.87;118.99
75799;DHT22;65035;44.726;37.764;2023-02-03T03:06:23;18.86;118.99
75799;DHT22;65035;44.726;37.764;2023-02-03T03:07:28;18.86;118.99
75799;DHT22;65035;44.726;37.764;2023-02-03T03:08:56;18.87;118.99
75799;DHT22;65035;44.726;37.764;2023-02-03T03:10:05;18.87;118.99
75799;DHT22;65035;44.726;37.764;2023-02-03T03:11:09;18.86;118.99
75799;DHT22;65035;44.726;37.764;2023-02-03T03:12:17;18.87;118.99
75799;DHT22;65035;44.726;37.764;2023-02-03T03:13:26;18.86;118.99
75799;DHT22;65035;44.726;37.764;2023-02-03T03:14:30;18.84;118.99
75799;DHT22;65035;44.726;37.764;2023-02-03T03:15:35;18.84;118.99
75799;DHT22;65035;44.726;37.764;2023-02-03T03:16:45;18.83;118.99
75799;DHT22;65035;44.726;37.764;2023-02-03T03:18:15;18.83;118.72
75799;DHT22;65035;44.726;37.764;2023-02-03T03:19:24;18.84;118.99
75799;DHT22;65035;44.726;37.764;2023-02-03T03:20:28;18.84;118.99
75799;DHT22;65035;44.726;37.764;2023-02-03T03:21:37;18.84;118.99
75799;DHT22;65035;44.726;37.764;2023-02-03T03:22:49;18.79;118.99
75799;DHT22;65035;44.726;37.764;2023-02-03T03:23:54;18.84;118.69
75799;DHT22;65035;44.726;37.764;2023-02-03T03:25:18;18.81;118.99
75799;DHT22;65035;44.726;37.764;2023-02-03T03:27:30;18.82;118.99
75799;DHT22;65035;44.726;37.764;2023-02-03T03:28:56;18.82;118.99
75799;DHT22;65035;44.726;37.764;2023-02-03T03:30:08;18.81;118.99
75799;DHT22;65035;44.726;37.764;2023-02-03T03:31:12;18.82;118.99
75799;DHT22;65035;44.726;37.764;2023-02-03T03:32:15;18.82;118.99
75799;DHT22;65035;44.726;37.764;2023-02-03T03:33:19;18.82;118.99
75799;DHT22;65035;44.726;37.764;2023-02-03T03:34:23;18.84;118.99
75799;DHT22;65035;44.726;37.764;2023-02-03T03:35:31;18.83;118.99
75799;DHT22;65035;44.726;37.764;2023-02-03T03:36:40;18.83;118.99
75799;DHT22;65035;44.726;37.764;2023-02-03T03:38:10;18.83;118.99
75799;DHT22;65035;44.726;37.764;2023-02-03T03:40:42;18.82;118.99
75799;DHT22;65035;44.726;37.764;2023-02-03T03:41:56;18.82;118.99
75799;DHT22;65035;44.726;37.764;2023-02-03T03:43:13;18.83;118.99
75799;DHT22;65035;44.726;37.764;2023-02-03T03:44:17;18.81;118.99
75799;DHT22;65035;44.726;37.764;2023-02-03T03:45:23;18.84;118.99
75799;DHT22;65035;44.726;37.764;2023-02-03T03:47:01;18.82;118.99
75799;DHT22;65035;44.726;37.764;2023-02-03T03:48:24;18.79;118.99
75799;DHT22;65035;44.726;37.764;2023-02-03T03:49:24;18.82;118.99
75799;DHT22;65035;44.726;37.764;2023-02-03T03:50:31;18.84;118.99
75799;DHT22;65035;44.726;37.764;2023-02-03T03:51:43;18.84;114.41
75799;DHT22;65035;44.726;37.764;2023-02-03T03:52:49;18.80;118.99
75799;DHT22;65035;44.726;37.764;2023-02-03T03:53:59;18.79;118.99
75799;DHT22;65035;44.726;37.764;2023-02-03T03:55:06;18.82;118.99
75799;DHT22;65035;44.726;37.764;2023-02-03T03:56:14;18.81;118.99
75799;DHT22;65035;44.726;37.764;2023-02-03T03:57:24;18.84;118.99
75799;DHT22;65035;44.726;37.764;2023-02-03T03:58:30;18.87;118.99
75799;DHT22;65035;44.726;37.764;2023-02-03T03:59:36;18.92;118.99
75799;DHT22;65035;44.726;37.764;2023-02-03T04:00:40;18.93;118.99
75799;DHT22;65035;44.726;37.764;2023-02-03T04:01:46;18.97;118.99
75799;DHT22;65035;44.726;37.764;2023-02-03T04:02:51;18.99;118.99
75799;DHT22;65035;44.726;37.764;2023-02-03T04:03:59;19.00;118.99
75799;DHT22;65035;44.726;37.764;2023-02-03T04:05:04;19.00;118.99
75799;DHT22;65035;44.726;37.764;2023-02-03T04:06:08;19.02;118.99
75799;DHT22;65035;44.726;37.764;2023-02-03T04:07:14;19.07;118.99
75799;DHT22;65035;44.726;37.764;2023-02-03T04:08:17;19.08;118.99
75799;DHT22;65035;44.726;37.764;2023-02-03T04:09:20;19.09;118.99
75799;DHT22;65035;44.726;37.764;2023-02-03T04:10:31;19.09;118.99
75799;DHT22;65035;44.726;37.764;2023-02-03T04:11:34;19.13;118.99
75799;DHT22;65035;44.726;37.764;2023-02-03T04:12:55;19.13;118.99
75799;DHT22;65035;44.726;37.764;2023-02-03T04:13:57;19.13;118.99
75799;DHT22;65035;44.726;37.764;2023-02-03T04:15:00;19.20;118.99
75799;DHT22;65035;44.726;37.764;2023-02-03T04:16:04;19.22;118.99
75799;DHT22;65035;44.726;37.764;2023-02-03T04:17:07;19.24;118.99
75799;DHT22;65035;44.726;37.764;2023-02-03T04:18:14;19.25;118.99
75799;DHT22;65035;44.726;37.764;2023-02-03T04:19:17;19.27;118.99
75799;DHT22;65035;44.726;37.764;2023-02-03T04:20:20;19.27;118.99
75799;DHT22;65035;44.726;37.764;2023-02-03T04:21:22;19.31;118.99
75799;DHT22;65035;44.726;37.764;2023-02-03T04:22:25;19.31;118.99
75799;DHT22;65035;44.726;37.764;2023-02-03T04:23:28;19.33;118.99
75799;DHT22;65035;44.726;37.764;2023-02-03T04:24:30;19.32;118.99
75799;DHT22;65035;44.726;37.764;2023-02-03T04:25:33;19.35;118.99
75799;DHT22;65035;44.726;37.764;2023-02-03T04:26:36;19.32;118.99
75799;DHT22;65035;44.726;37.764;2023-02-03T04:27:39;19.38;118.99
75799;DHT22;65035;44.726;37.764;2023-02-03T04:28:42;19.39;118.99
75799;DHT22;65035;44.726;37.764;2023-02-03T04:29:45;19.38;118.99
75799;DHT22;65035;44.726;37.764;2023-02-03T04:30:49;19.36;118.99
75799;DHT22;65035;44.726;37.764;2023-02-03T04:31:51;19.40;118.99
75799;DHT22;65035;44.726;37.764;2023-02-03T04:32:54;19.40;118.99
75799;DHT22;65035;44.726;37.764;2023-02-03T04:33:57;19.40;118.99
75799;DHT22;65035;44.726;37.764;2023-02-03T04:35:01;19.42;118.99
75799;DHT22;65035;44.726;37.764;2023-02-03T04:36:04;19.42;118.99
75799;DHT22;65035;44.726;37.764;2023-02-03T04:37:07;19.44;118.99
75799;DHT22;65035;44.726;37.764;2023-02-03T04:38:10;19.44;118.99
75799;DHT22;65035;44.726;37.764;2023-02-03T04:39:13;19.43;118.99
75799;DHT22;65035;44.726;37.764;2023-02-03T04:40:18;19.46;118.99
75799;DHT22;65035;44.726;37.764;2023-02-03T04:41:21;19.45;118.99
75799;DHT22;65035;44.726;37.764;2023-02-03T04:42:24;19.44;118.99
75799;DHT22;65035;44.726;37.764;2023-02-03T04:43:27;19.45;118.99
75799;DHT22;65035;44.726;37.764;2023-02-03T04:44:30;19.46;118.99
75799;DHT22;65035;44.726;37.764;2023-02-03T04:45:33;19.44;118.99
75799;DHT22;65035;44.726;37.764;2023-02-03T04:46:35;19.46;118.99
75799;DHT22;65035;44.726;37.764;2023-02-03T04:47:38;19.47;118.99
75799;DHT22;65035;44.726;37.764;2023-02-03T04:48:41;19.47;118.99
75799;DHT22;65035;44.726;37.764;2023-02-03T04:49:44;19.39;118.99
75799;DHT22;65035;44.726;37.764;2023-02-03T04:50:47;19.42;118.99
75799;DHT22;65035;44.726;37.764;2023-02-03T04:51:49;19.47;118.99
75799;DHT22;65035;44.726;37.764;2023-02-03T04:52:52;19.44;118.99
75799;DHT22;65035;44.726;37.764;2023-02-03T04:53:55;19.45;118.99
75799;DHT22;65035;44.726;37.764;2023-02-03T04:54:58;19.48;118.99
75799;DHT22;65035;44.726;37.764;2023-02-03T04:56:01;19.48;118.99
75799;DHT22;65035;44.726;37.764;2023-02-03T04:57:05;19.51;118.99
75799;DHT22;65035;44.726;37.764;2023-02-03T04:58:08;19.46;118.99
75799;DHT22;65035;44.726;37.764;2023-02-03T04:59:11;19.47;118.99
75799;DHT22;65035;44.726;37.764;2023-02-03T05:00:14;19.48;118.99
75799;DHT22;65035;44.726;37.764;2023-02-03T05:01:16;19.51;118.99
75799;DHT22;65035;44.726;37.764;2023-02-03T05:02:19;19.54;118.99
75799;DHT22;65035;44.726;37.764;2023-02-03T05:03:25;19.50;118.99
75799;DHT22;65035;44.726;37.764;2023-02-03T05:04:27;19.51;118.99
75799;DHT22;65035;44.726;37.764;2023-02-03T05:05:30;19.52;118.99
75799;DHT22;65035;44.726;37.764;2023-02-03T05:06:33;19.47;118.99
75799;DHT22;65035;44.726;37.764;2023-02-03T05:07:36;19.48;118.99
75799;DHT22;65035;44.726;37.764;2023-02-03T05:08:39;19.51;118.99
75799;DHT22;65035;44.726;37.764;2023-02-03T05:09:42;19.52;118.99
75799;DHT22;65035;44.726;37.764;2023-02-03T05:10:45;19.53;118.99
75799;DHT22;65035;44.726;37.764;2023-02-03T05:11:47;19.52;118.99
75799;DHT22;65035;44.726;37.764;2023-02-03T05:12:50;19.53;118.99
75799;DHT22;65035;44.726;37.764;2023-02-03T05:13:53;19.54;118.99
75799;DHT22;65035;44.726;37.764;2023-02-03T05:14:56;19.53;118.99
75799;DHT22;65035;44.726;37.764;2023-02-03T05:15:58;19.53;118.99
75799;DHT22;65035;44.726;37.764;2023-02-03T05:17:01;19.54;118.99
75799;DHT22;65035;44.726;37.764;2023-02-03T05:18:04;19.51;118.99
75799;DHT22;65035;44.726;37.764;2023-02-03T05:19:07;19.56;118.99
75799;DHT22;65035;44.726;37.764;2023-02-03T05:20:10;19.58;115.50
75799;DHT22;65035;44.726;37.764;2023-02-03T05:21:13;19.56;118.99
75799;DHT22;65035;44.726;37.764;2023-02-03T05:22:16;19.55;118.99
75799;DHT22;65035;44.726;37.764;2023-02-03T05:23:19;19.56;118.99
75799;DHT22;65035;44.726;37.764;2023-02-03T05:24:21;19.54;118.99
75799;DHT22;65035;44.726;37.764;2023-02-03T05:25:24;19.54;118.99
75799;DHT22;65035;44.726;37.764;2023-02-03T05:26:30;19.55;118.99
75799;DHT22;65035;44.726;37.764;2023-02-03T05:27:32;19.55;118.99
75799;DHT22;65035;44.726;37.764;2023-02-03T05:28:35;19.55;118.99
75799;DHT22;65035;44.726;37.764;2023-02-03T05:29:38;19.57;118.99
75799;DHT22;65035;44.726;37.764;2023-02-03T05:30:41;19.56;118.99
75799;DHT22;65035;44.726;37.764;2023-02-03T05:31:43;19.57;118.99
75799;DHT22;65035;44.726;37.764;2023-02-03T05:32:48;19.59;118.99
75799;DHT22;65035;44.726;37.764;2023-02-03T05:33:51;19.56;118.99
75799;DHT22;65035;44.726;37.764;2023-02-03T05:34:54;19.57;118.99
75799;DHT22;65035;44.726;37.764;2023-02-03T05:35:57;19.60;118.99
75799;DHT22;65035;44.726;37.764;2023-02-03T05:37:00;19.58;118.99
75799;DHT22;65035;44.726;37.764;2023-02-03T05:38:03;19.60;118.99
75799;DHT22;65035;44.726;37.764;2023-02-03T05:39:06;19.60;118.99
75799;DHT22;65035;44.726;37.764;2023-02-03T05:40:09;19.60;118.99
75799;DHT22;65035;44.726;37.764;2023-02-03T05:41:31;19.61;118.99
75799;DHT22;65035;44.726;37.764;2023-02-03T05:42:52;19.58;118.99
75799;DHT22;65035;44.726;37.764;2023-02-03T05:43:54;19.60;118.99
75799;DHT22;65035;44.726;37.764;2023-02-03T05:44:57;19.61;118.99
75799;DHT22;65035;44.726;37.764;2023-02-03T05:46:01;19.59;118.99
75799;DHT22;65035;44.726;37.764;2023-02-03T05:47:04;19.61;118.99
75799;DHT22;65035;44.726;37.764;2023-02-03T05:48:10;19.62;118.99
75799;DHT22;65035;44.726;37.764;2023-02-03T05:49:13;19.60;118.99
75799;DHT22;65035;44.726;37.764;2023-02-03T05:50:16;19.61;118.99
75799;DHT22;65035;44.726;37.764;2023-02-03T05:51:20;19.60;118.99
75799;DHT22;65035;44.726;37.764;2023-02-03T05:52:23;19.60;118.99
75799;DHT22;65035;44.726;37.764;2023-02-03T05:53:26;19.61;118.99
75799;DHT22;65035;44.726;37.764;2023-02-03T05:54:29;19.62;118.99
75799;DHT22;65035;44.726;37.764;2023-02-03T05:55:33;19.63;118.99
75799;DHT22;65035;44.726;37.764;2023-02-03T05:56:36;19.62;118.99
75799;DHT22;65035;44.726;37.764;2023-02-03T05:57:40;19.63;117.88
75799;DHT22;65035;44.726;37.764;2023-02-03T05:58:43;19.63;118.96
75799;DHT22;65035;44.726;37.764;2023-02-03T05:59:46;19.66;116.52
75799;DHT22;65035;44.726;37.764;2023-02-03T06:00:51;19.62;118.99
75799;DHT22;65035;44.726;37.764;2023-02-03T06:01:54;19.63;118.99
75799;DHT22;65035;44.726;37.764;2023-02-03T06:02:59;19.65;118.99
75799;DHT22;65035;44.726;37.764;2023-02-03T06:04:04;19.65;118.99
75799;DHT22;65035;44.726;37.764;2023-02-03T06:05:07;19.65;118.34
75799;DHT22;65035;44.726;37.764;2023-02-03T06:06:10;19.62;118.99
75799;DHT22;65035;44.726;37.764;2023-02-03T06:07:13;19.65;118.99
75799;DHT22;65035;44.726;37.764;2023-02-03T06:08:15;19.62;118.99
75799;DHT22;65035;44.726;37.764;2023-02-03T06:09:18;19.66;118.99
75799;DHT22;65035;44.726;37.764;2023-02-03T06:10:21;19.65;118.99
75799;DHT22;65035;44.726;37.764;2023-02-03T06:11:24;19.66;118.99
75799;DHT22;65035;44.726;37.764;2023-02-03T06:12:27;19.65;118.99
75799;DHT22;65035;44.726;37.764;2023-02-03T06:13:30;19.66;118.99
75799;DHT22;65035;44.726;37.764;2023-02-03T06:14:33;19.66;118.42
75799;DHT22;65035;44.726;37.764;2023-02-03T06:15:36;19.67;118.69
75799;DHT22;65035;44.726;37.764;2023-02-03T06:16:39;19.67;118.99
75799;DHT22;65035;44.726;37.764;2023-02-03T06:17:48;19.68;118.99
75799;DHT22;65035;44.726;37.764;2023-02-03T06:18:52;19.67;118.99
75799;DHT22;65035;44.726;37.764;2023-02-03T06:19:55;19.67;118.99
75799;DHT22;65035;44.726;37.764;2023-02-03T06:20:58;19.69;118.99
75799;DHT22;65035;44.726;37.764;2023-02-03T06:22:00;19.69;118.95
75799;DHT22;65035;44.726;37.764;2023-02-03T06:23:03;19.67;118.99
75799;DHT22;65035;44.726;37.764;2023-02-03T06:24:06;19.65;118.99
75799;DHT22;65035;44.726;37.764;2023-02-03T06:25:09;19.67;118.99
75799;DHT22;65035;44.726;37.764;2023-02-03T06:26:15;19.67;118.99
75799;DHT22;65035;44.726;37.764;2023-02-03T06:27:18;19.67;118.99
75799;DHT22;65035;44.726;37.764;2023-02-03T06:28:21;19.67;118.99
75799;DHT22;65035;44.726;37.764;2023-02-03T06:29:24;19.68;118.99
75799;DHT22;65035;44.726;37.764;2023-02-03T06:30:26;19.68;118.99
75799;DHT22;65035;44.726;37.764;2023-02-03T06:31:32;19.69;118.99
75799;DHT22;65035;44.726;37.764;2023-02-03T06:32:35;19.68;118.99
75799;DHT22;65035;44.726;37.764;2023-02-03T06:33:38;19.69;118.99
75799;DHT22;65035;44.726;37.764;2023-02-03T06:34:41;19.69;118.99
75799;DHT22;65035;44.726;37.764;2023-02-03T06:35:44;19.68;118.99
75799;DHT22;65035;44.726;37.764;2023-02-03T06:36:47;19.68;118.99
75799;DHT22;65035;44.726;37.764;2023-02-03T06:37:50;19.68;118.99
75799;DHT22;65035;44.726;37.764;2023-02-03T06:38:53;19.69;118.99
75799;DHT22;65035;44.726;37.764;2023-02-03T06:39:56;19.69;118.99
75799;DHT22;65035;44.726;37.764;2023-02-03T06:40:58;19.72;118.99
75799;DHT22;65035;44.726;37.764;2023-02-03T06:42:01;19.71;118.04
75799;DHT22;65035;44.726;37.764;2023-02-03T06:43:04;19.71;118.99
75799;DHT22;65035;44.726;37.764;2023-02-03T06:44:07;19.72;118.99
75799;DHT22;65035;44.726;37.764;2023-02-03T06:45:10;19.71;118.99
75799;DHT22;65035;44.726;37.764;2023-02-03T06:46:12;19.72;118.99
75799;DHT22;65035;44.726;37.764;2023-02-03T06:47:15;19.72;116.56
75799;DHT22;65035;44.726;37.764;2023-02-03T06:48:18;19.72;116.77
75799;DHT22;65035;44.726;37.764;2023-02-03T06:49:24;19.73;117.82
75799;DHT22;65035;44.726;37.764;2023-02-03T06:50:27;19.73;115.79
75799;DHT22;65035;44.726;37.764;2023-02-03T06:51:30;19.72;115.25
75799;DHT22;65035;44.726;37.764;2023-02-03T06:52:33;19.73;118.99
75799;DHT22;65035;44.726;37.764;2023-02-03T06:53:35;19.73;117.16
75799;DHT22;65035;44.726;37.764;2023-02-03T06:54:38;19.75;117.09
75799;DHT22;65035;44.726;37.764;2023-02-03T06:55:41;19.73;118.99
75799;DHT22;65035;44.726;37.764;2023-02-03T06:56:44;19.75;116.03
75799;DHT22;65035;44.726;37.764;2023-02-03T06:57:47;19.74;116.53
75799;DHT22;65035;44.726;37.764;2023-02-03T06:58:50;19.74;118.71
75799;DHT22;65035;44.726;37.764;2023-02-03T06:59:53;19.74;118.99
75799;DHT22;65035;44.726;37.764;2023-02-03T07:00:56;19.72;118.99
75799;DHT22;65035;44.726;37.764;2023-02-03T07:01:59;19.73;118.99
75799;DHT22;65035;44.726;37.764;2023-02-03T07:03:02;19.71;118.99